Holly Springs, MS (38634)

4:30 PM CDT on August 17, 2017 (GMT -0500)
Holly Springs | | Change Station

Elev 577 ft 34.77 °N, 89.46 °W | Updated 8 minutes ago

Mostly Cloudy
Mostly Cloudy
86.3 °F
Feels Like 100 °F
N
2.0
Wind Variable Wind from SSE
Gusts 4.0 mph

Today
High -- | Low -- °F
--% Chance of Precip.
Yesterday
High -- | Low -- °F
Precip. -- in
Pressure 29.94 in
Visibility 10.0 miles
Clouds Scattered Clouds 2100 ft
Scattered Clouds 3300 ft
Mostly Cloudy 7500 ft
Heat Index 100 °F
Dew Point 79 °F
Humidity 79%
Rainfall 0.00 in
Snow Depth Not available.
6:19 AM 7:43 PM
Waning Crescent, 19% visible
SPECI KMEM 172102Z 20008KT 10SM VCTS SCT021 SCT033CB BKN075 27/25 A2994 RMK AO2 LTG DSNT ALQDS TSE2057 VCSH CB NE-E AND S-SW MOV E T02670250 $
Pressure 29.94 in
Visibility 10.0 miles
Clouds Scattered Clouds 2100 ft
Scattered Clouds 3300 ft
Mostly Cloudy 7500 ft
Heat Index 100 °F
Dew Point 79 °F
Humidity 79%
Rainfall 0.00 in
Snow Depth Not available.
6:19 AM 7:43 PM
Waning Crescent, 19% visible
SPECI KMEM 172102Z 20008KT 10SM VCTS SCT021 SCT033CB BKN075 27/25 A2994 RMK AO2 LTG DSNT ALQDS TSE2057 VCSH CB NE-E AND S-SW MOV E T02670250 $

Get Severe Weather Alerts

Thanks for signing up!

Be on the lookout for a verification email in your inbox.

You'll start receiving the daily forecast at 6 AM.

×

10-Day Weather Forecast

Almanac

Astronomy

Aug. 17, 2017 Rise Set
Actual Time
Civil Twilight
Nautical Twilight
Astronomical Twilight
Moon
Length of Visible Light
Length of Day
Tomorrow will be .
, % of the Moon is Illuminated

Today's Extremes

State Highs State Lows

Community

WunderPhotos

Category 6

Welcome to Category 6. This is the collective home for Weather Underground's featured writeups by Dr. Jeff Masters (right), Bob Henson (left), Chris Burt, and other regular contributors.

Nearby

Air Quality

  Air Quality AQ Index Pollutant
Not available.

Snow Depth

Station Depth Elevation

Earthquake Activity

City Distance Mag. Time & Date
Minimum magnitude displayed is 2.5.

Coastal Water Temperatures

Place Temperature

Stations

Nearby Weather Stations

Station Location Temp. Windchill Dew Point Humidity Wind Precip. Elev Updated Type
                   

Watches & Warnings

There are currently no watches in effect.